createdAt,value
2022-10-10T00:00:20.275Z,3.17
2022-10-10T00:05:21.948Z,2.58
2022-10-10T00:10:23.706Z,2.83
2022-10-10T00:15:25.808Z,2.42
2022-10-10T00:20:27.514Z,2.42
2022-10-10T00:25:29.234Z,3.75
2022-10-10T00:30:31.424Z,5.57
2022-10-10T00:35:33.109Z,2.38
2022-10-10T00:40:35.059Z,5.80
2022-10-10T00:45:36.612Z,3.53
2022-10-10T00:50:50.549Z,4.32
2022-10-10T00:55:54.354Z,4.00
2022-10-10T01:00:56.927Z,2.60
2022-10-10T01:05:58.695Z,2.85
2022-10-10T01:11:39.576Z,4.88
2022-10-10T01:17:20.757Z,2.75
2022-10-10T01:22:31.651Z,6.07
2022-10-10T01:27:45.991Z,2.53
2022-10-10T01:33:11.656Z,2.47
2022-10-10T01:38:38.394Z,1.85
2022-10-10T01:43:40.510Z,1.45
2022-10-10T01:48:44.548Z,1.98
2022-10-10T01:54:23.872Z,7.15
2022-10-10T01:59:53.660Z,3.30
2022-10-10T02:05:05.463Z,3.78
2022-10-10T02:10:08.741Z,2.55
2022-10-10T02:15:14.213Z,4.45
2022-10-10T02:20:20.582Z,5.68
2022-10-10T02:25:26.862Z,3.70
2022-10-10T02:30:28.611Z,3.33
2022-10-10T02:35:38.484Z,2.83
2022-10-10T02:40:42.673Z,2.08
2022-10-10T02:45:44.933Z,3.63
2022-10-10T02:50:46.710Z,1.98
2022-10-10T02:55:48.378Z,3.17
2022-10-10T03:00:50.057Z,2.03
2022-10-10T03:05:51.834Z,3.38
2022-10-10T03:10:58.820Z,3.72
2022-10-10T03:16:00.463Z,2.42
2022-10-10T03:21:02.254Z,3.22
2022-10-10T03:26:04.953Z,1.77
2022-10-10T03:31:06.680Z,4.32
2022-10-10T03:36:08.301Z,3.40
2022-10-10T03:41:10.226Z,2.58
2022-10-10T03:46:16.095Z,3.45
2022-10-10T03:51:18.124Z,4.25
2022-10-10T03:56:19.777Z,3.40
2022-10-10T04:01:21.430Z,4.05
2022-10-10T04:06:23.332Z,3.20
2022-10-10T04:11:25.014Z,3.03
2022-10-10T04:16:26.614Z,4.55
2022-10-10T04:21:28.230Z,2.05
2022-10-10T04:26:29.958Z,1.23
2022-10-10T04:31:31.637Z,2.13
2022-10-10T04:36:33.348Z,2.80
2022-10-10T04:41:35.083Z,4.22
2022-10-10T04:46:36.740Z,3.20
2022-10-10T04:51:38.787Z,3.78
2022-10-10T04:56:42.434Z,4.95
2022-10-10T05:01:44.526Z,6.88
2022-10-10T05:06:46.602Z,1.70
2022-10-10T05:11:48.664Z,3.08
2022-10-10T05:16:50.689Z,4.93
2022-10-10T05:21:52.819Z,3.60
2022-10-10T05:26:54.866Z,2.83
2022-10-10T05:31:56.953Z,2.45
2022-10-10T05:36:58.984Z,4.82
2022-10-10T05:42:01.144Z,7.28
2022-10-10T05:47:04.372Z,3.40
2022-10-10T05:52:06.228Z,2.45
2022-10-10T05:57:09.151Z,3.00
2022-10-10T06:02:13.820Z,1.85
2022-10-10T06:07:16.192Z,3.75
2022-10-10T06:12:17.873Z,2.88
2022-10-10T06:17:19.674Z,3.58
2022-10-10T06:22:21.375Z,2.95
2022-10-10T06:27:23.187Z,1.80
2022-10-10T06:32:24.905Z,3.78
2022-10-10T06:37:26.508Z,2.85
2022-10-10T06:42:28.147Z,6.05
2022-10-10T06:47:32.314Z,5.03
2022-10-10T06:52:33.945Z,4.03
2022-10-10T06:57:35.669Z,3.40
2022-10-10T07:02:40.598Z,3.30
2022-10-10T07:07:43.478Z,3.42
2022-10-10T07:12:45.349Z,4.03
2022-10-10T07:17:51.874Z,2.42
2022-10-10T07:22:55.936Z,3.78
2022-10-10T07:27:57.718Z,5.55
2022-10-10T07:32:59.433Z,2.83
2022-10-10T07:38:01.395Z,4.53
2022-10-10T07:43:03.642Z,4.03
2022-10-10T07:48:05.642Z,2.70
2022-10-10T07:53:07.991Z,4.03
2022-10-10T07:58:13.871Z,6.15
2022-10-10T08:03:15.889Z,5.28
2022-10-10T08:08:17.518Z,5.05
2022-10-10T08:13:19.228Z,2.15
2022-10-10T08:18:21.265Z,3.03
2022-10-10T08:23:23.866Z,4.15
2022-10-10T08:28:26.123Z,4.68
2022-10-10T08:33:28.575Z,5.85
2022-10-10T08:38:30.254Z,2.47
2022-10-10T08:43:48.425Z,3.88
2022-10-10T08:48:55.619Z,2.50
2022-10-10T08:54:05.389Z,4.95
2022-10-10T08:59:22.245Z,2.35
2022-10-10T09:04:24.091Z,3.27
2022-10-10T09:09:50.638Z,2.83
2022-10-10T09:15:15.241Z,4.95
2022-10-10T09:20:20.436Z,4.95
2022-10-10T09:25:27.374Z,3.90
2022-10-10T09:30:31.831Z,3.75
2022-10-10T09:35:37.539Z,3.60
2022-10-10T09:40:47.187Z,3.63
2022-10-10T09:45:53.902Z,5.15
2022-10-10T09:50:55.955Z,3.53
2022-10-10T09:55:58.779Z,8.18
2022-10-10T10:01:19.697Z,3.85
2022-10-10T10:06:21.464Z,3.22
2022-10-10T10:11:30.777Z,4.90
2022-10-10T10:16:40.102Z,4.65
2022-10-10T10:21:52.510Z,4.47
2022-10-10T10:26:54.346Z,5.03
2022-10-10T10:32:33.909Z,5.10
2022-10-10T10:37:50.550Z,5.43
2022-10-10T10:43:13.891Z,5.68
2022-10-10T10:48:28.142Z,5.05
2022-10-10T10:53:45.017Z,6.47
2022-10-10T10:59:30.276Z,2.72
2022-10-10T11:05:17.480Z,3.92
2022-10-10T11:09:49.554Z,3.45
2022-10-10T11:15:09.148Z,4.07
2022-10-10T11:20:41.890Z,3.97
2022-10-10T11:25:54.968Z,3.00
2022-10-10T11:31:01.655Z,8.25
2022-10-10T11:36:10.279Z,4.75
2022-10-10T11:41:44.345Z,6.05
2022-10-10T11:46:54.091Z,3.78
2022-10-10T11:52:09.532Z,2.53
2022-10-10T11:57:25.439Z,3.25
2022-10-10T12:02:36.242Z,5.28
2022-10-10T12:08:04.832Z,1.88
2022-10-10T12:13:27.058Z,3.05
2022-10-10T12:18:45.526Z,3.45
2022-10-10T12:23:50.804Z,4.60
2022-10-10T12:29:09.667Z,3.60
2022-10-10T12:34:36.020Z,2.00
2022-10-10T12:39:39.324Z,3.92
2022-10-10T12:44:45.753Z,4.00
2022-10-10T12:49:53.330Z,4.53
2022-10-10T12:55:15.874Z,5.28
2022-10-10T13:00:26.257Z,2.45
2022-10-10T13:05:35.837Z,3.10
2022-10-10T13:10:37.581Z,4.15
2022-10-10T13:15:39.588Z,4.22
2022-10-10T13:20:41.916Z,2.55
2022-10-10T13:25:45.893Z,4.25
2022-10-10T13:30:51.159Z,5.55
2022-10-10T13:35:52.898Z,6.65
2022-10-10T13:40:54.876Z,4.65
2022-10-10T13:46:01.154Z,4.35
2022-10-10T13:51:09.358Z,4.13
2022-10-10T13:56:23.479Z,5.68
2022-10-10T14:01:35.420Z,4.55
2022-10-10T14:06:37.248Z,3.70
2022-10-10T14:11:41.520Z,1.75
2022-10-10T14:16:43.343Z,6.60
2022-10-10T14:21:45.422Z,3.47
2022-10-10T14:26:47.169Z,5.00
2022-10-10T14:31:48.976Z,4.93
2022-10-10T14:36:50.921Z,2.47
2022-10-10T14:41:52.653Z,4.85
2022-10-10T14:46:54.644Z,4.25
2022-10-10T14:51:56.317Z,5.22
2022-10-10T14:57:09.373Z,6.70
2022-10-10T15:02:11.660Z,4.70
2022-10-10T15:07:14.771Z,4.80
2022-10-10T15:12:16.915Z,3.05
2022-10-10T15:17:18.648Z,2.33
2022-10-10T15:22:20.473Z,5.72
2022-10-10T15:27:22.194Z,4.28
2022-10-10T15:32:24.178Z,5.95
2022-10-10T15:37:27.324Z,6.85
2022-10-10T15:42:29.079Z,8.15
2022-10-10T15:47:31.151Z,8.18
2022-10-10T15:52:32.843Z,4.68
2022-10-10T15:57:34.533Z,3.63
2022-10-10T16:02:37.528Z,6.40
2022-10-10T16:07:48.221Z,3.47
2022-10-10T16:12:50.256Z,3.88
2022-10-10T16:17:52.089Z,3.47
2022-10-10T16:22:53.736Z,3.35
2022-10-10T16:27:55.491Z,3.25
2022-10-10T16:32:59.059Z,4.97
2022-10-10T16:38:00.705Z,6.07
2022-10-10T16:43:03.287Z,3.92
2022-10-10T16:48:05.116Z,4.78
2022-10-10T16:53:07.688Z,5.68
2022-10-10T16:58:09.718Z,5.20
2022-10-10T17:03:11.426Z,8.65
2022-10-10T17:08:13.638Z,4.82
2022-10-10T17:13:15.275Z,7.40
2022-10-10T17:18:17.496Z,8.98
2022-10-10T17:23:19.331Z,10.18
2022-10-10T17:28:21.129Z,6.22
2022-10-10T17:33:23.479Z,3.95
2022-10-10T17:38:39.052Z,4.90
2022-10-10T17:43:42.318Z,5.80
2022-10-10T17:48:43.932Z,5.72
2022-10-10T17:53:45.544Z,5.05
2022-10-10T17:58:48.121Z,6.68
2022-10-10T18:03:51.331Z,9.35
2022-10-10T18:08:54.051Z,11.70
2022-10-10T18:14:00.360Z,10.27
2022-10-10T18:19:05.073Z,8.60
2022-10-10T18:24:07.342Z,9.38
2022-10-10T18:29:09.166Z,9.55
2022-10-10T18:34:11.981Z,7.00
2022-10-10T18:39:15.682Z,8.82
2022-10-10T18:44:18.544Z,5.75
2022-10-10T18:49:21.011Z,7.38
2022-10-10T18:54:23.121Z,7.97
2022-10-10T18:59:24.766Z,8.77
2022-10-10T19:04:26.642Z,5.15
2022-10-10T19:09:28.364Z,10.85
2022-10-10T19:14:29.954Z,5.70
2022-10-10T19:19:31.594Z,9.40
2022-10-10T19:24:33.268Z,9.07
2022-10-10T19:29:35.270Z,7.15
2022-10-10T19:34:37.760Z,9.38
2022-10-10T19:39:39.595Z,12.10
2022-10-10T19:44:41.237Z,5.32
2022-10-10T19:49:42.950Z,11.60
2022-10-10T19:54:44.626Z,6.75
2022-10-10T19:59:46.399Z,11.88
2022-10-10T20:04:48.015Z,7.45
2022-10-10T20:09:50.520Z,8.18
2022-10-10T20:14:52.595Z,9.30
2022-10-10T20:19:54.330Z,8.88
2022-10-10T20:24:56.072Z,13.02
2022-10-10T20:29:58.006Z,11.32
2022-10-10T20:35:00.610Z,9.10
2022-10-10T20:40:02.289Z,7.60
2022-10-10T20:45:08.014Z,13.13
2022-10-10T20:50:12.139Z,7.00
2022-10-10T20:55:15.162Z,14.20
2022-10-10T21:00:17.034Z,9.70
2022-10-10T21:05:18.720Z,8.40
2022-10-10T21:10:20.430Z,6.18
2022-10-10T21:15:22.285Z,9.98
2022-10-10T21:20:23.925Z,8.38
2022-10-10T21:25:25.630Z,8.50
2022-10-10T21:30:29.552Z,12.05
2022-10-10T21:35:31.509Z,7.68
2022-10-10T21:40:35.984Z,13.50
2022-10-10T21:45:38.632Z,8.57
2022-10-10T21:50:40.519Z,9.77
2022-10-10T21:55:42.171Z,12.32
2022-10-10T22:00:44.015Z,8.07
2022-10-10T22:05:45.838Z,9.95
2022-10-10T22:10:47.525Z,8.38
2022-10-10T22:15:49.189Z,8.98
2022-10-10T22:20:51.219Z,9.88
2022-10-10T22:25:52.911Z,13.93
2022-10-10T22:30:54.612Z,7.93
2022-10-10T22:35:56.326Z,8.82
2022-10-10T22:40:58.303Z,8.57
2022-10-10T22:46:00.200Z,4.63
2022-10-10T22:51:13.788Z,9.77
2022-10-10T22:56:19.053Z,10.52
2022-10-10T23:01:24.173Z,10.60
2022-10-10T23:06:26.249Z,7.38
2022-10-10T23:11:27.868Z,5.97
2022-10-10T23:16:32.580Z,5.60
2022-10-10T23:21:34.672Z,5.95
2022-10-10T23:26:36.346Z,5.72
2022-10-10T23:31:37.992Z,7.10
2022-10-10T23:36:39.654Z,8.52
2022-10-10T23:41:41.263Z,7.72
2022-10-10T23:46:42.882Z,7.80
2022-10-10T23:51:44.521Z,11.90
2022-10-10T23:56:46.125Z,6.10
